| time (UTC) | temp F | wind direction | speed MPH | gust MPH | rain 1hr in | rain 24hr in | rain mn in | humidity % | barometer mb |
| 20260507061606 | 45 | 260 | 12.0 | 0.0 | 0.00 | 0.00 | 0.00 | 99 | |
| 20260507051605 | 46 | 250 | 12.0 | 0.0 | 0.00 | 0.00 | 0.00 | 93 | |
| 20260507041808 | 46 | 250 | 12.0 | 0.0 | 0.00 | 0.00 | 0.00 | 93 | |
| 20260507031610 | 46 | 250 | 9.0 | 0.0 | 0.00 | 0.00 | 0.00 | 99 | |
| 20260507021605 | 46 | 270 | 9.0 | 0.0 | 0.00 | 0.00 | 0.00 | 99 | |
| 20260507011706 | 48 | 270 | 14.0 | 24.0 | 0.00 | 0.00 | 0.00 | 93 | |
| 20260507001606 | 48 | 250 | 7.0 | 0.0 | 0.00 | 0.00 | 0.00 | 93 | |
| 20260506231606 | 48 | 260 | 12.0 | 0.0 | 0.00 | 0.00 | 0.00 | 93 | |
| 20260506221806 | 48 | 280 | 7.0 | 0.0 | 0.00 | 0.00 | 0.00 | 93 | |
| 20260506211606 | 48 | 280 | 9.0 | 0.0 | 0.00 | 0.00 | 0.00 | 93 | |
| 20260506201606 | 50 | 230 | 5.0 | 0.0 | 0.00 | 0.00 | 0.00 | 93 | |
| 20260506191612 | 52 | 340 | 7.0 | 0.0 | 0.00 | 0.00 | 0.00 | 81 | |
| 20260506181606 | 55 | 150 | 2.0 | 0.0 | 0.00 | 0.00 | 0.00 | 71 | |
| 20260506171606 | 57 | 80 | 7.0 | 0.0 | 0.00 | 0.00 | 0.00 | 67 | |
| 20260506161806 | 61 | 20 | 5.0 | 0.0 | 0.00 | 0.00 | 0.00 | 59 | |
| 20260506151606 | 61 | 360 | 5.0 | 0.0 | 0.00 | 0.00 | 0.00 | 59 | |
| 20260506141607 | 61 | 70 | 2.0 | 0.0 | 0.00 | 0.00 | 0.00 | 59 | |
| 20260506131607 | 63 | 50 | 2.0 | 0.0 | 0.00 | 0.00 | 0.00 | 51 | |
| 20260506121607 | 61 | 250 | 5.0 | 0.0 | 0.00 | 0.00 | 0.00 | 55 | |
| 20260506111606 | 59 | 240 | 5.0 | 0.0 | 0.00 | 0.00 | 0.00 | 58 | |
| 20260506101807 | 57 | 270 | 9.0 | 0.0 | 0.00 | 0.00 | 0.00 | 67 | |
| 20260506091607 | 54 | 250 | 9.0 | 0.0 | 0.00 | 0.00 | 0.00 | 71 | |
| 20260506081606 | 54 | 270 | 9.0 | 0.0 | 0.00 | 0.00 | 0.00 | 81 | |
| 20260506071606 | 50 | 270 | 7.0 | 0.0 | 0.00 | 0.00 | 0.00 | 87 |